sensor_id;sensor_type;location;lat;lon;timestamp;pressure;altitude;pressure_sealevel;temperature;humidity
48077;BME280;33854;57.708;12.008;2022-12-10T00:00:51;100366.44;;;-4.03;100.00
48077;BME280;33854;57.708;12.008;2022-12-10T00:03:16;100378.34;;;-4.02;100.00
48077;BME280;33854;57.708;12.008;2022-12-10T00:05:42;100380.03;;;-4.03;100.00
48077;BME280;33854;57.708;12.008;2022-12-10T00:08:07;100363.06;;;-4.02;100.00
48077;BME280;33854;57.708;12.008;2022-12-10T00:10:32;100370.72;;;-3.97;100.00
48077;BME280;33854;57.708;12.008;2022-12-10T00:12:58;100369.03;;;-3.92;100.00
48077;BME280;33854;57.708;12.008;2022-12-10T00:15:23;100376.72;;;-3.89;100.00
48077;BME280;33854;57.708;12.008;2022-12-10T00:17:48;100367.38;;;-3.90;100.00
48077;BME280;33854;57.708;12.008;2022-12-10T00:20:14;100368.19;;;-3.90;100.00
48077;BME280;33854;57.708;12.008;2022-12-10T00:22:39;100349.50;;;-3.93;100.00
48077;BME280;33854;57.708;12.008;2022-12-10T00:25:04;100339.34;;;-3.89;100.00
48077;BME280;33854;57.708;12.008;2022-12-10T00:27:30;100314.69;;;-3.88;100.00
48077;BME280;33854;57.708;12.008;2022-12-10T00:29:55;100296.81;;;-3.93;100.00
48077;BME280;33854;57.708;12.008;2022-12-10T00:32:21;100283.19;;;-3.98;100.00
48077;BME280;33854;57.708;12.008;2022-12-10T00:34:46;100278.13;;;-3.95;100.00
48077;BME280;33854;57.708;12.008;2022-12-10T00:37:11;100271.31;;;-3.96;100.00
48077;BME280;33854;57.708;12.008;2022-12-10T00:39:37;100259.41;;;-3.95;100.00
48077;BME280;33854;57.708;12.008;2022-12-10T00:42:02;100239.88;;;-3.98;100.00
48077;BME280;33854;57.708;12.008;2022-12-10T00:44:27;100222.88;;;-4.02;100.00
48077;BME280;33854;57.708;12.008;2022-12-10T00:46:53;100221.97;;;-4.07;100.00
48077;BME280;33854;57.708;12.008;2022-12-10T00:49:18;100204.13;;;-4.12;100.00
48077;BME280;33854;57.708;12.008;2022-12-10T00:51:43;100172.63;;;-4.24;100.00
48077;BME280;33854;57.708;12.008;2022-12-10T00:54:08;100153.13;;;-4.25;100.00
48077;BME280;33854;57.708;12.008;2022-12-10T00:56:34;100138.63;;;-4.35;100.00
48077;BME280;33854;57.708;12.008;2022-12-10T00:59:00;100110.53;;;-4.47;100.00
48077;BME280;33854;57.708;12.008;2022-12-10T01:01:33;100090.16;;;-4.56;100.00
48077;BME280;33854;57.708;12.008;2022-12-10T01:04:00;100079.09;;;-4.60;100.00
48077;BME280;33854;57.708;12.008;2022-12-10T01:06:27;100073.13;;;-4.64;100.00
48077;BME280;33854;57.708;12.008;2022-12-10T01:08:55;100071.44;;;-4.66;100.00
48077;BME280;33854;57.708;12.008;2022-12-10T01:11:21;100080.75;;;-4.67;100.00
48077;BME280;33854;57.708;12.008;2022-12-10T01:13:47;100073.97;;;-4.71;100.00
48077;BME280;33854;57.708;12.008;2022-12-10T01:16:13;100073.09;;;-4.74;100.00
48077;BME280;33854;57.708;12.008;2022-12-10T01:18:39;100077.31;;;-4.81;100.00
48077;BME280;33854;57.708;12.008;2022-12-10T01:21:06;100080.69;;;-4.83;100.00
48077;BME280;33854;57.708;12.008;2022-12-10T01:23:32;100083.19;;;-4.88;100.00
48077;BME280;33854;57.708;12.008;2022-12-10T01:26:01;100076.38;;;-4.95;100.00
48077;BME280;33854;57.708;12.008;2022-12-10T01:28:28;100089.13;;;-4.92;100.00
48077;BME280;33854;57.708;12.008;2022-12-10T01:30:53;100097.53;;;-4.99;100.00
48077;BME280;33854;57.708;12.008;2022-12-10T01:33:18;100105.19;;;-5.00;100.00
48077;BME280;33854;57.708;12.008;2022-12-10T01:35:43;100102.59;;;-5.05;100.00
48077;BME280;33854;57.708;12.008;2022-12-10T01:38:09;100120.41;;;-5.05;100.00
48077;BME280;33854;57.708;12.008;2022-12-10T01:40:37;100122.97;;;-5.03;100.00
48077;BME280;33854;57.708;12.008;2022-12-10T01:43:02;100139.91;;;-5.04;100.00
48077;BME280;33854;57.708;12.008;2022-12-10T01:45:28;100135.66;;;-5.08;100.00
48077;BME280;33854;57.708;12.008;2022-12-10T01:47:53;100148.41;;;-5.08;100.00
48077;BME280;33854;57.708;12.008;2022-12-10T01:50:18;100146.69;;;-5.09;100.00
48077;BME280;33854;57.708;12.008;2022-12-10T01:52:44;100148.38;;;-5.11;100.00
48077;BME280;33854;57.708;12.008;2022-12-10T01:55:38;100139.81;;;-5.18;100.00
48077;BME280;33854;57.708;12.008;2022-12-10T01:57:55;100141.50;;;-5.21;100.00
48077;BME280;33854;57.708;12.008;2022-12-10T02:00:20;100148.28;;;-5.23;100.00
48077;BME280;33854;57.708;12.008;2022-12-10T02:02:46;100144.00;;;-5.24;100.00
48077;BME280;33854;57.708;12.008;2022-12-10T02:05:28;100153.31;;;-5.26;100.00
48077;BME280;33854;57.708;12.008;2022-12-10T02:13:21;100152.50;;;-5.24;100.00
48077;BME280;33854;57.708;12.008;2022-12-10T02:15:52;100151.63;;;-5.26;100.00
48077;BME280;33854;57.708;12.008;2022-12-10T02:18:30;100147.38;;;-5.27;100.00
48077;BME280;33854;57.708;12.008;2022-12-10T02:20:58;100151.63;;;-5.29;100.00
48077;BME280;33854;57.708;12.008;2022-12-10T02:31:26;100171.84;;;-5.41;100.00
48077;BME280;33854;57.708;12.008;2022-12-10T02:33:55;100173.50;;;-5.44;100.00
48077;BME280;33854;57.708;12.008;2022-12-10T02:36:22;100176.06;;;-5.41;100.00
48077;BME280;33854;57.708;12.008;2022-12-10T02:38:48;100189.63;;;-5.42;100.00
48077;BME280;33854;57.708;12.008;2022-12-10T02:41:28;100180.25;;;-5.49;100.00
48077;BME280;33854;57.708;12.008;2022-12-10T02:43:55;100192.94;;;-5.49;100.00
48077;BME280;33854;57.708;12.008;2022-12-10T02:46:22;100193.78;;;-5.50;100.00
48077;BME280;33854;57.708;12.008;2022-12-10T02:48:49;100196.28;;;-5.53;100.00
48077;BME280;33854;57.708;12.008;2022-12-10T02:51:16;100203.03;;;-5.58;100.00
48077;BME280;33854;57.708;12.008;2022-12-10T02:53:44;100204.78;;;-5.54;100.00
48077;BME280;33854;57.708;12.008;2022-12-10T02:56:16;100200.47;;;-5.58;100.00
48077;BME280;33854;57.708;12.008;2022-12-10T03:03:52;100217.38;;;-5.63;100.00
48077;BME280;33854;57.708;12.008;2022-12-10T03:09:11;100231.81;;;-5.59;100.00
48077;BME280;33854;57.708;12.008;2022-12-10T03:11:38;100232.66;;;-5.59;100.00
48077;BME280;33854;57.708;12.008;2022-12-10T03:16:35;100252.22;;;-5.55;100.00
48077;BME280;33854;57.708;12.008;2022-12-10T03:19:02;100253.06;;;-5.54;100.00
48077;BME280;33854;57.708;12.008;2022-12-10T03:21:29;100253.88;;;-5.58;100.00
48077;BME280;33854;57.708;12.008;2022-12-10T03:23:55;100249.56;;;-5.65;100.00
48077;BME280;33854;57.708;12.008;2022-12-10T03:26:21;100255.47;;;-5.66;100.00
48077;BME280;33854;57.708;12.008;2022-12-10T03:28:48;100262.28;;;-5.65;100.00
48077;BME280;33854;57.708;12.008;2022-12-10T03:31:14;100258.78;;;-5.73;100.00
48077;BME280;33854;57.708;12.008;2022-12-10T03:33:40;100259.66;;;-5.71;100.00
48077;BME280;33854;57.708;12.008;2022-12-10T03:36:06;100267.28;;;-5.70;100.00
48077;BME280;33854;57.708;12.008;2022-12-10T03:38:32;100269.81;;;-5.71;100.00
48077;BME280;33854;57.708;12.008;2022-12-10T03:40:57;100268.06;;;-5.76;100.00
48077;BME280;33854;57.708;12.008;2022-12-10T03:43:23;100261.31;;;-5.75;100.00
48077;BME280;33854;57.708;12.008;2022-12-10T03:45:48;100271.44;;;-5.77;100.00
48077;BME280;33854;57.708;12.008;2022-12-10T03:48:13;100270.63;;;-5.76;100.00
48077;BME280;33854;57.708;12.008;2022-12-10T03:50:38;100282.56;;;-5.68;100.00
48077;BME280;33854;57.708;12.008;2022-12-10T03:53:04;100292.72;;;-5.70;100.00
48077;BME280;33854;57.708;12.008;2022-12-10T03:55:29;100292.63;;;-5.76;100.00
48077;BME280;33854;57.708;12.008;2022-12-10T03:57:54;100291.78;;;-5.77;100.00
48077;BME280;33854;57.708;12.008;2022-12-10T04:00:19;100296.03;;;-5.77;100.00
48077;BME280;33854;57.708;12.008;2022-12-10T04:02:45;100295.94;;;-5.82;100.00
48077;BME280;33854;57.708;12.008;2022-12-10T04:05:10;100297.59;;;-5.88;100.00
48077;BME280;33854;57.708;12.008;2022-12-10T04:07:35;100301.84;;;-5.89;100.00
48077;BME280;33854;57.708;12.008;2022-12-10T04:10:01;100295.84;;;-5.91;100.00
48077;BME280;33854;57.708;12.008;2022-12-10T04:12:26;100291.59;;;-5.95;100.00
48077;BME280;33854;57.708;12.008;2022-12-10T04:14:51;100289.91;;;-5.94;100.00
48077;BME280;33854;57.708;12.008;2022-12-10T04:17:35;100281.34;;;-5.99;100.00
48077;BME280;33854;57.708;12.008;2022-12-10T04:20:00;100277.06;;;-6.03;100.00
48077;BME280;33854;57.708;12.008;2022-12-10T04:22:25;100284.63;;;-6.09;100.00
48077;BME280;33854;57.708;12.008;2022-12-10T04:25:12;100285.44;;;-6.10;100.00
48077;BME280;33854;57.708;12.008;2022-12-10T04:27:56;100301.53;;;-6.11;100.00
48077;BME280;33854;57.708;12.008;2022-12-10T04:30:22;100315.88;;;-6.13;100.00
48077;BME280;33854;57.708;12.008;2022-12-10T04:32:47;100334.56;;;-6.10;100.00
48077;BME280;33854;57.708;12.008;2022-12-10T04:35:13;100350.63;;;-6.11;100.00
48077;BME280;33854;57.708;12.008;2022-12-10T04:37:38;100377.75;;;-6.10;100.00
48077;BME280;33854;57.708;12.008;2022-12-10T04:40:04;100402.31;;;-6.07;100.00
48077;BME280;33854;57.708;12.008;2022-12-10T04:42:29;100425.13;;;-6.12;100.00
48077;BME280;33854;57.708;12.008;2022-12-10T04:44:54;100440.28;;;-6.16;100.00
48077;BME280;33854;57.708;12.008;2022-12-10T04:47:20;100463.94;;;-6.19;100.00
48077;BME280;33854;57.708;12.008;2022-12-10T04:49:45;100496.09;;;-6.19;100.00
48077;BME280;33854;57.708;12.008;2022-12-10T04:52:11;100517.31;;;-6.17;100.00
48077;BME280;33854;57.708;12.008;2022-12-10T04:54:37;100545.22;;;-6.19;100.00
48077;BME280;33854;57.708;12.008;2022-12-10T04:57:02;100557.91;;;-6.20;100.00
48077;BME280;33854;57.708;12.008;2022-12-10T04:59:28;100592.59;;;-6.21;100.00
48077;BME280;33854;57.708;12.008;2022-12-10T05:01:53;100601.03;;;-6.22;100.00
48077;BME280;33854;57.708;12.008;2022-12-10T05:04:18;100621.34;;;-6.22;100.00
48077;BME280;33854;57.708;12.008;2022-12-10T05:06:44;100651.81;;;-6.23;100.00
48077;BME280;33854;57.708;12.008;2022-12-10T05:09:11;100664.38;;;-6.29;100.00
48077;BME280;33854;57.708;12.008;2022-12-10T05:11:37;100678.75;;;-6.31;100.00
48077;BME280;33854;57.708;12.008;2022-12-10T05:14:02;100699.06;;;-6.31;100.00
48077;BME280;33854;57.708;12.008;2022-12-10T05:16:28;100715.19;;;-6.28;100.00
48077;BME280;33854;57.708;12.008;2022-12-10T05:18:54;100732.09;;;-6.30;100.00
48077;BME280;33854;57.708;12.008;2022-12-10T05:21:20;100746.41;;;-6.33;100.00
48077;BME280;33854;57.708;12.008;2022-12-10T05:23:47;100759.88;;;-6.36;100.00
48077;BME280;33854;57.708;12.008;2022-12-10T05:26:14;100782.88;;;-6.30;100.00
48077;BME280;33854;57.708;12.008;2022-12-10T05:28:44;100796.31;;;-6.34;100.00
48077;BME280;33854;57.708;12.008;2022-12-10T05:31:13;100803.91;;;-6.37;100.00
48077;BME280;33854;57.708;12.008;2022-12-10T05:33:39;100819.16;;;-6.36;100.00
48077;BME280;33854;57.708;12.008;2022-12-10T05:36:04;100833.59;;;-6.34;100.00
48077;BME280;33854;57.708;12.008;2022-12-10T05:38:30;100854.69;;;-6.37;100.00
48077;BME280;33854;57.708;12.008;2022-12-10T05:41:00;100863.91;;;-6.41;100.00
48077;BME280;33854;57.708;12.008;2022-12-10T05:43:26;100866.44;;;-6.41;100.00
48077;BME280;33854;57.708;12.008;2022-12-10T05:45:52;100886.69;;;-6.42;100.00
48077;BME280;33854;57.708;12.008;2022-12-10T05:48:17;100892.63;;;-6.43;100.00
48077;BME280;33854;57.708;12.008;2022-12-10T05:50:42;100898.41;;;-6.49;100.00
48077;BME280;33854;57.708;12.008;2022-12-10T05:53:08;100911.84;;;-6.51;100.00
48077;BME280;33854;57.708;12.008;2022-12-10T05:55:33;100921.88;;;-6.57;100.00
48077;BME280;33854;57.708;12.008;2022-12-10T05:57:59;100923.59;;;-6.56;100.00
48077;BME280;33854;57.708;12.008;2022-12-10T06:00:24;100900.63;;;-6.61;100.00
48077;BME280;33854;57.708;12.008;2022-12-10T06:02:50;100822.75;;;-6.62;100.00
48077;BME280;33854;57.708;12.008;2022-12-10T06:05:15;100837.31;;;-6.55;100.00
48077;BME280;33854;57.708;12.008;2022-12-10T06:07:41;100866.13;;;-6.53;100.00
48077;BME280;33854;57.708;12.008;2022-12-10T06:10:06;100883.09;;;-6.52;100.00
48077;BME280;33854;57.708;12.008;2022-12-10T06:12:31;100912.00;;;-6.45;100.00
48077;BME280;33854;57.708;12.008;2022-12-10T06:14:57;100922.16;;;-6.45;100.00
48077;BME280;33854;57.708;12.008;2022-12-10T06:17:22;100936.56;;;-6.46;100.00
48077;BME280;33854;57.708;12.008;2022-12-10T06:19:47;100956.81;;;-6.49;100.00
48077;BME280;33854;57.708;12.008;2022-12-10T06:22:12;100966.91;;;-6.50;100.00
48077;BME280;33854;57.708;12.008;2022-12-10T06:24:38;100972.78;;;-6.51;100.00
48077;BME280;33854;57.708;12.008;2022-12-10T06:27:03;100987.19;;;-6.52;100.00
48077;BME280;33854;57.708;12.008;2022-12-10T06:29:30;100986.31;;;-6.52;100.00
48077;BME280;33854;57.708;12.008;2022-12-10T06:31:55;101000.69;;;-6.53;100.00
48077;BME280;33854;57.708;12.008;2022-12-10T06:34:20;101001.38;;;-6.58;100.00
48077;BME280;33854;57.708;12.008;2022-12-10T06:36:46;101006.47;;;-6.58;100.00
48077;BME280;33854;57.708;12.008;2022-12-10T06:39:11;101016.63;;;-6.58;100.00
48077;BME280;33854;57.708;12.008;2022-12-10T06:41:36;101019.88;;;-6.62;100.00
48077;BME280;33854;57.708;12.008;2022-12-10T06:44:02;101015.56;;;-6.65;100.00
48077;BME280;33854;57.708;12.008;2022-12-10T06:46:27;101023.88;;;-6.70;100.00
48077;BME280;33854;57.708;12.008;2022-12-10T06:48:53;101027.31;;;-6.68;100.00
48077;BME280;33854;57.708;12.008;2022-12-10T06:51:18;101034.03;;;-6.70;100.00
48077;BME280;33854;57.708;12.008;2022-12-10T06:53:44;101036.47;;;-6.75;100.00
48077;BME280;33854;57.708;12.008;2022-12-10T06:56:13;101032.88;;;-6.81;100.00
48077;BME280;33854;57.708;12.008;2022-12-10T06:58:39;101029.31;;;-6.88;100.00
48077;BME280;33854;57.708;12.008;2022-12-10T07:01:16;101027.53;;;-6.90;100.00
48077;BME280;33854;57.708;12.008;2022-12-10T07:03:42;101031.91;;;-6.86;100.00
48077;BME280;33854;57.708;12.008;2022-12-10T07:06:08;101030.13;;;-6.89;100.00
48077;BME280;33854;57.708;12.008;2022-12-10T07:08:34;101032.63;;;-6.90;100.00
48077;BME280;33854;57.708;12.008;2022-12-10T07:11:02;101041.88;;;-6.93;100.00
48077;BME280;33854;57.708;12.008;2022-12-10T07:13:28;101047.84;;;-6.90;100.00
48077;BME280;33854;57.708;12.008;2022-12-10T07:15:53;101063.34;;;-6.81;100.00
48077;BME280;33854;57.708;12.008;2022-12-10T07:18:18;101074.25;;;-6.84;100.00
48077;BME280;33854;57.708;12.008;2022-12-10T07:20:44;101069.81;;;-6.91;100.00
48077;BME280;33854;57.708;12.008;2022-12-10T07:23:09;101075.53;;;-6.98;100.00
48077;BME280;33854;57.708;12.008;2022-12-10T07:25:35;101085.63;;;-7.00;100.00
48077;BME280;33854;57.708;12.008;2022-12-10T07:28:00;101087.28;;;-7.00;100.00
48077;BME280;33854;57.708;12.008;2022-12-10T07:30:25;101100.22;;;-6.93;100.00
48077;BME280;33854;57.708;12.008;2022-12-10T07:32:50;101117.09;;;-6.95;100.00
48077;BME280;33854;57.708;12.008;2022-12-10T07:35:16;101112.72;;;-6.99;100.00
48077;BME280;33854;57.708;12.008;2022-12-10T07:37:41;101110.06;;;-7.03;100.00
48077;BME280;33854;57.708;12.008;2022-12-10T07:40:06;101131.44;;;-6.95;100.00
48077;BME280;33854;57.708;12.008;2022-12-10T07:42:32;101144.22;;;-6.92;100.00
48077;BME280;33854;57.708;12.008;2022-12-10T07:44:57;101143.28;;;-6.94;100.00
48077;BME280;33854;57.708;12.008;2022-12-10T07:47:22;101157.69;;;-6.95;100.00
48077;BME280;33854;57.708;12.008;2022-12-10T07:49:48;101173.03;;;-6.90;100.00
48077;BME280;33854;57.708;12.008;2022-12-10T07:52:13;101173.03;;;-6.90;100.00
48077;BME280;33854;57.708;12.008;2022-12-10T07:54:38;101189.06;;;-6.91;100.00
48077;BME280;33854;57.708;12.008;2022-12-10T07:57:04;101195.06;;;-6.89;100.00
48077;BME280;33854;57.708;12.008;2022-12-10T07:59:29;101206.81;;;-6.91;100.00
48077;BME280;33854;57.708;12.008;2022-12-10T08:01:56;101211.19;;;-6.87;100.00
48077;BME280;33854;57.708;12.008;2022-12-10T08:04:21;101205.25;;;-6.87;100.00
48077;BME280;33854;57.708;12.008;2022-12-10T08:06:46;101193.19;;;-6.95;100.00
48077;BME280;33854;57.708;12.008;2022-12-10T08:09:12;101189.78;;;-6.95;100.00
48077;BME280;33854;57.708;12.008;2022-12-10T08:11:38;101188.38;;;-6.85;100.00
48077;BME280;33854;57.708;12.008;2022-12-10T08:14:03;101186.78;;;-6.83;100.00
48077;BME280;33854;57.708;12.008;2022-12-10T08:16:28;101191.03;;;-6.82;100.00
48077;BME280;33854;57.708;12.008;2022-12-10T08:18:55;101191.13;;;-6.79;100.00
48077;BME280;33854;57.708;12.008;2022-12-10T08:21:21;101184.34;;;-6.80;100.00
48077;BME280;33854;57.708;12.008;2022-12-10T08:23:47;101170.00;;;-6.78;100.00
48077;BME280;33854;57.708;12.008;2022-12-10T08:26:14;101159.88;;;-6.77;100.00
48077;BME280;33854;57.708;12.008;2022-12-10T08:28:39;101153.44;;;-6.67;100.00
48077;BME280;33854;57.708;12.008;2022-12-10T08:31:05;101157.00;;;-6.61;100.00
48077;BME280;33854;57.708;12.008;2022-12-10T08:33:32;101141.91;;;-6.56;100.00
48077;BME280;33854;57.708;12.008;2022-12-10T08:35:59;101117.34;;;-6.57;100.00
48077;BME280;33854;57.708;12.008;2022-12-10T08:38:25;101102.19;;;-6.54;100.00
48077;BME280;33854;57.708;12.008;2022-12-10T08:40:50;101076.00;;;-6.53;100.00
48077;BME280;33854;57.708;12.008;2022-12-10T08:43:16;101049.81;;;-6.51;100.00
48077;BME280;33854;57.708;12.008;2022-12-10T08:45:41;101016.00;;;-6.50;100.00
48077;BME280;33854;57.708;12.008;2022-12-10T08:48:06;100986.50;;;-6.46;100.00
48077;BME280;33854;57.708;12.008;2022-12-10T08:50:32;100928.91;;;-6.47;100.00
48077;BME280;33854;57.708;12.008;2022-12-10T08:52:57;100878.19;;;-6.44;100.00
48077;BME280;33854;57.708;12.008;2022-12-10T08:55:23;100815.72;;;-6.38;100.00
48077;BME280;33854;57.708;12.008;2022-12-10T08:57:48;100761.53;;;-6.38;100.00
48077;BME280;33854;57.708;12.008;2022-12-10T09:00:13;100690.53;;;-6.33;100.00
48077;BME280;33854;57.708;12.008;2022-12-10T09:02:39;100623.75;;;-6.29;100.00
48077;BME280;33854;57.708;12.008;2022-12-10T09:05:05;100551.84;;;-6.27;100.00
48077;BME280;33854;57.708;12.008;2022-12-10T09:07:30;100509.66;;;-6.19;100.00
48077;BME280;33854;57.708;12.008;2022-12-10T09:09:55;100451.25;;;-6.19;100.00
48077;BME280;33854;57.708;12.008;2022-12-10T09:12:21;100423.47;;;-6.10;100.00
48077;BME280;33854;57.708;12.008;2022-12-10T09:14:46;100382.00;;;-6.07;100.00
48077;BME280;33854;57.708;12.008;2022-12-10T09:17:11;100354.16;;;-6.01;100.00
48077;BME280;33854;57.708;12.008;2022-12-10T09:19:36;100329.56;;;-6.02;100.00
48077;BME280;33854;57.708;12.008;2022-12-10T09:22:02;100306.78;;;-5.98;100.00
48077;BME280;33854;57.708;12.008;2022-12-10T09:24:28;100289.06;;;-5.95;100.00
48077;BME280;33854;57.708;12.008;2022-12-10T09:26:53;100275.53;;;-5.92;100.00
48077;BME280;33854;57.708;12.008;2022-12-10T09:29:18;100265.44;;;-5.86;100.00
48077;BME280;33854;57.708;12.008;2022-12-10T09:31:43;100250.25;;;-5.79;100.00
48077;BME280;33854;57.708;12.008;2022-12-10T09:34:09;100238.53;;;-5.66;100.00
48077;BME280;33854;57.708;12.008;2022-12-10T09:36:34;100213.97;;;-5.64;100.00
48077;BME280;33854;57.708;12.008;2022-12-10T09:38:59;100201.34;;;-5.56;100.00
48077;BME280;33854;57.708;12.008;2022-12-10T09:52:01;100006.63;;;-5.30;100.00
48077;BME280;33854;57.708;12.008;2022-12-10T09:54:31;99965.94;;;-5.27;100.00
48077;BME280;33854;57.708;12.008;2022-12-10T09:56:57;99931.22;;;-5.19;100.00
48077;BME280;33854;57.708;12.008;2022-12-10T09:59:32;99891.41;;;-5.05;100.00
48077;BME280;33854;57.708;12.008;2022-12-10T10:02:42;99842.25;;;-4.96;100.00
48077;BME280;33854;57.708;12.008;2022-12-10T10:04:49;99779.50;;;-4.91;100.00
48077;BME280;33854;57.708;12.008;2022-12-10T10:07:22;99736.25;;;-4.87;100.00
48077;BME280;33854;57.708;12.008;2022-12-10T10:09:48;99662.44;;;-4.87;100.00
48077;BME280;33854;57.708;12.008;2022-12-10T10:12:15;99597.13;;;-4.77;100.00
48077;BME280;33854;57.708;12.008;2022-12-10T10:14:41;99538.56;;;-4.71;100.00
48077;BME280;33854;57.708;12.008;2022-12-10T10:17:12;99450.25;;;-4.60;100.00
48077;BME280;33854;57.708;12.008;2022-12-10T10:19:40;99376.41;;;-4.57;100.00
48077;BME280;33854;57.708;12.008;2022-12-10T10:22:06;99343.91;;;-4.25;100.00
48077;BME280;33854;57.708;12.008;2022-12-10T10:24:44;99305.66;;;-4.23;100.00
48077;BME280;33854;57.708;12.008;2022-12-10T10:27:16;99243.69;;;-4.22;100.00
48077;BME280;33854;57.708;12.008;2022-12-10T10:29:46;99144.28;;;-4.16;100.00
48077;BME280;33854;57.708;12.008;2022-12-10T10:32:16;99060.16;;;-4.12;100.00
48077;BME280;33854;57.708;12.008;2022-12-10T10:34:42;98987.13;;;-4.11;100.00
48077;BME280;33854;57.708;12.008;2022-12-10T10:37:42;98920.75;;;-4.04;100.00
48077;BME280;33854;57.708;12.008;2022-12-10T10:40:00;98835.72;;;-3.96;100.00
48077;BME280;33854;57.708;12.008;2022-12-10T10:42:38;98778.78;;;-3.95;100.00
48077;BME280;33854;57.708;12.008;2022-12-10T10:45:05;98721.75;;;-3.90;100.00
48077;BME280;33854;57.708;12.008;2022-12-10T10:47:32;98620.72;;;-3.91;100.00
48077;BME280;33854;57.708;12.008;2022-12-10T10:49:58;98538.91;;;-3.79;100.00
48077;BME280;33854;57.708;12.008;2022-12-10T10:52:25;98486.19;;;-3.78;100.00
48077;BME280;33854;57.708;12.008;2022-12-10T10:54:52;98433.66;;;-3.84;100.00
48077;BME280;33854;57.708;12.008;2022-12-10T10:57:23;98393.50;;;-3.74;100.00
48077;BME280;33854;57.708;12.008;2022-12-10T10:59:48;98381.31;;;-3.63;100.00
48077;BME280;33854;57.708;12.008;2022-12-10T11:02:19;98347.94;;;-3.56;100.00
48077;BME280;33854;57.708;12.008;2022-12-10T11:04:49;98306.03;;;-3.46;100.00
48077;BME280;33854;57.708;12.008;2022-12-10T11:07:26;98279.13;;;-3.56;100.00
48077;BME280;33854;57.708;12.008;2022-12-10T11:09:58;98244.25;;;-3.54;100.00
48077;BME280;33854;57.708;12.008;2022-12-10T11:14:57;98175.91;;;-3.42;100.00
48077;BME280;33854;57.708;12.008;2022-12-10T11:17:24;98165.16;;;-3.52;100.00
48077;BME280;33854;57.708;12.008;2022-12-10T11:19:58;98141.84;;;-3.40;100.00
48077;BME280;33854;57.708;12.008;2022-12-10T11:22:24;98127.00;;;-3.27;100.00
48077;BME280;33854;57.708;12.008;2022-12-10T11:24:50;98124.13;;;-3.18;100.00
48077;BME280;33854;57.708;12.008;2022-12-10T11:37:35;98106.69;;;-3.30;100.00
48077;BME280;33854;57.708;12.008;2022-12-10T11:55:39;98034.19;;;-2.29;100.00
48077;BME280;33854;57.708;12.008;2022-12-10T12:00:49;97942.28;;;-1.27;100.00
48077;BME280;33854;57.708;12.008;2022-12-10T12:05:56;97855.31;;;-0.89;100.00
48077;BME280;33854;57.708;12.008;2022-12-10T12:08:45;97823.84;;;-0.74;100.00
48077;BME280;33854;57.708;12.008;2022-12-10T12:13:49;97812.66;;;-0.90;100.00
48077;BME280;33854;57.708;12.008;2022-12-10T12:16:29;97821.94;;;-0.88;100.00
48077;BME280;33854;57.708;12.008;2022-12-10T12:19:01;97832.69;;;-0.98;100.00
48077;BME280;33854;57.708;12.008;2022-12-10T12:21:28;97862.25;;;-1.11;100.00
48077;BME280;33854;57.708;12.008;2022-12-10T12:29:11;97942.13;;;-2.04;100.00
48077;BME280;33854;57.708;12.008;2022-12-10T12:31:39;97945.31;;;-2.21;100.00
48077;BME280;33854;57.708;12.008;2022-12-10T12:34:21;97941.94;;;-2.21;100.00
48077;BME280;33854;57.708;12.008;2022-12-10T12:36:49;97911.06;;;-2.15;100.00
48077;BME280;33854;57.708;12.008;2022-12-10T12:44:45;97888.69;;;-2.10;100.00
48077;BME280;33854;57.708;12.008;2022-12-10T12:47:24;97865.25;;;-2.00;100.00
48077;BME280;33854;57.708;12.008;2022-12-10T12:49:55;97845.78;;;-1.82;100.00
48077;BME280;33854;57.708;12.008;2022-12-10T12:52:36;97847.31;;;-1.78;100.00
48077;BME280;33854;57.708;12.008;2022-12-10T12:55:05;97859.31;;;-1.80;100.00
48077;BME280;33854;57.708;12.008;2022-12-10T12:57:43;97846.84;;;-1.67;100.00
48077;BME280;33854;57.708;12.008;2022-12-10T13:00:12;97826.09;;;-1.41;100.00
48077;BME280;33854;57.708;12.008;2022-12-10T13:02:58;97821.69;;;-1.19;100.00
48077;BME280;33854;57.708;12.008;2022-12-10T13:05:27;97850.84;;;-1.23;100.00
48077;BME280;33854;57.708;12.008;2022-12-10T13:10:51;97871.13;;;-1.19;100.00
48077;BME280;33854;57.708;12.008;2022-12-10T13:13:24;97900.69;;;-1.32;100.00
48077;BME280;33854;57.708;12.008;2022-12-10T13:15:51;97942.97;;;-1.63;100.00
48077;BME280;33854;57.708;12.008;2022-12-10T13:20:49;98021.06;;;-2.65;100.00
48077;BME280;33854;57.708;12.008;2022-12-10T13:31:05;97972.19;;;-3.50;100.00
48077;BME280;33854;57.708;12.008;2022-12-10T13:33:45;97933.75;;;-3.69;100.00
48077;BME280;33854;57.708;12.008;2022-12-10T13:36:11;97876.28;;;-3.77;100.00
48077;BME280;33854;57.708;12.008;2022-12-10T13:38:41;97842.69;;;-3.88;100.00
48077;BME280;33854;57.708;12.008;2022-12-10T13:41:06;97806.47;;;-3.96;100.00
48077;BME280;33854;57.708;12.008;2022-12-10T13:43:51;97800.84;;;-4.06;100.00
48077;BME280;33854;57.708;12.008;2022-12-10T13:49:20;97798.78;;;-4.20;100.00
48077;BME280;33854;57.708;12.008;2022-12-10T13:59:57;97779.69;;;-4.33;100.00
48077;BME280;33854;57.708;12.008;2022-12-10T14:05:37;97805.03;;;-4.30;100.00
48077;BME280;33854;57.708;12.008;2022-12-10T14:07:59;97820.22;;;-4.27;100.00
48077;BME280;33854;57.708;12.008;2022-12-10T14:10:30;97846.50;;;-4.26;100.00
48077;BME280;33854;57.708;12.008;2022-12-10T14:12:56;97851.50;;;-4.23;100.00
48077;BME280;33854;57.708;12.008;2022-12-10T14:15:23;97866.13;;;-4.30;100.00
48077;BME280;33854;57.708;12.008;2022-12-10T14:17:50;97885.00;;;-4.35;100.00
48077;BME280;33854;57.708;12.008;2022-12-10T14:20:17;97901.28;;;-4.41;100.00
48077;BME280;33854;57.708;12.008;2022-12-10T14:22:47;97915.13;;;-4.49;100.00